METAR AND TAF INFORMATION
METAR FOR HTZA
ADDS - METARS form results

(0929 UTC 19 January 2019)
Data provider http://aviationweather.gov/metar/data/
 
METAR text: HTZA 190900Z 03006KT 9999 SCT024 32/24 Q1011 NOSIG
Conditions at: HTZA (ZANZIBAR/KISAUNI, TZ) observed 0900 UTC 19 January 2019
Temperature: 32.0°C (90°F)
Dewpoint: 24.0°C (75°F) [RH = 63%]
Pressure (altimeter): 29.85 inches Hg (1011.0 mb)
Winds: from the NNE (30 degrees) at 7 MPH (6 knots; 3.1 m/s)
Visibility: 6 or more miles (10+ km)
Ceiling: at least 12,000 feet AGL
Clouds: scattered clouds at 2400 feet AGL
Weather: no significant weather observed at this time

 AIRPORT MAP

 RUNWAY INFORMATION
Runway 18 Runway length 8077 ft Runway width 148 ft
Runway elevation 54 ft Runway displaced threshold 0 ft Runway heading 174
Runway 36 Runway length 8077 ft Runway width 148 ft
Runway elevation 51 ft Runway displaced threshold 0 ft Runway heading 354

 AIRPORT FREQUENCIES
Type APP Name APP Frequency 121.2 MHZ
Type TWR Name TWR Frequency 121.2 MHZ

 AIRPORT NEAR NAVIGATION AIDS
Type NDB Name Zanzibar Frequency 385 KHZ



Powered by Virtual Airlines Manager [v2.6.2]